sensor_id;sensor_type;location;lat;lon;timestamp;pressure;altitude;pressure_sealevel;temperature;humidity
55540;BME280;41384;51.418;7.286;2023-03-21T00:01:02;99963.56;;;10.02;84.59
55540;BME280;41384;51.418;7.286;2023-03-21T00:03:29;99966.88;;;10.17;83.91
55540;BME280;41384;51.418;7.286;2023-03-21T00:05:54;99956.50;;;10.16;83.10
55540;BME280;41384;51.418;7.286;2023-03-21T00:08:21;99943.94;;;10.25;83.13
55540;BME280;41384;51.418;7.286;2023-03-21T00:10:47;99943.72;;;10.26;82.95
55540;BME280;41384;51.418;7.286;2023-03-21T00:13:19;99941.50;;;10.23;83.01
55540;BME280;41384;51.418;7.286;2023-03-21T00:15:44;99938.06;;;10.22;83.53
55540;BME280;41384;51.418;7.286;2023-03-21T00:18:18;99929.72;;;10.19;83.04
55540;BME280;41384;51.418;7.286;2023-03-21T00:20:57;99930.16;;;10.22;82.80
55540;BME280;41384;51.418;7.286;2023-03-21T00:23:27;99927.91;;;10.19;83.11
55540;BME280;41384;51.418;7.286;2023-03-21T00:25:53;99933.78;;;10.21;82.68
55540;BME280;41384;51.418;7.286;2023-03-21T00:28:19;99929.13;;;10.24;82.59
55540;BME280;41384;51.418;7.286;2023-03-21T00:30:45;99923.47;;;10.27;81.95
55540;BME280;41384;51.418;7.286;2023-03-21T00:33:10;99920.22;;;10.25;81.34
55540;BME280;41384;51.418;7.286;2023-03-21T00:35:37;99920.81;;;10.27;81.60
55540;BME280;41384;51.418;7.286;2023-03-21T00:38:02;99915.94;;;10.30;81.61
55540;BME280;41384;51.418;7.286;2023-03-21T00:40:28;99916.16;;;10.29;81.22
55540;BME280;41384;51.418;7.286;2023-03-21T00:42:53;99907.63;;;10.27;80.73
55540;BME280;41384;51.418;7.286;2023-03-21T00:45:18;99906.22;;;10.31;80.67
55540;BME280;41384;51.418;7.286;2023-03-21T00:47:46;99914.53;;;10.28;80.77
55540;BME280;41384;51.418;7.286;2023-03-21T00:50:11;99909.22;;;10.21;80.97
55540;BME280;41384;51.418;7.286;2023-03-21T00:52:37;99905.59;;;10.29;80.47
55540;BME280;41384;51.418;7.286;2023-03-21T00:55:03;99902.97;;;10.29;80.10
55540;BME280;41384;51.418;7.286;2023-03-21T00:57:29;99902.75;;;10.30;80.13
55540;BME280;41384;51.418;7.286;2023-03-21T00:59:54;99898.06;;;10.32;79.80
55540;BME280;41384;51.418;7.286;2023-03-21T01:02:22;99901.13;;;10.29;79.90
55540;BME280;41384;51.418;7.286;2023-03-21T01:04:50;99893.41;;;10.28;80.51
55540;BME280;41384;51.418;7.286;2023-03-21T01:07:16;99898.28;;;10.31;79.81
55540;BME280;41384;51.418;7.286;2023-03-21T01:09:41;99893.41;;;10.28;80.32
55540;BME280;41384;51.418;7.286;2023-03-21T01:12:06;99886.53;;;10.27;79.97
55540;BME280;41384;51.418;7.286;2023-03-21T01:14:32;99890.38;;;10.31;80.35
55540;BME280;41384;51.418;7.286;2023-03-21T01:16:57;99888.94;;;10.28;80.43
55540;BME280;41384;51.418;7.286;2023-03-21T01:19:24;99884.28;;;10.30;79.91
55540;BME280;41384;51.418;7.286;2023-03-21T01:21:54;99880.41;;;10.26;80.36
55540;BME280;41384;51.418;7.286;2023-03-21T01:24:20;99887.13;;;10.29;80.54
55540;BME280;41384;51.418;7.286;2023-03-21T01:26:45;99880.84;;;10.30;80.92
55540;BME280;41384;51.418;7.286;2023-03-21T01:29:11;99884.47;;;10.15;81.51
55540;BME280;41384;51.418;7.286;2023-03-21T01:31:36;99877.78;;;10.19;81.71
55540;BME280;41384;51.418;7.286;2023-03-21T01:34:01;99876.38;;;10.24;81.03
55540;BME280;41384;51.418;7.286;2023-03-21T01:36:27;99881.03;;;10.21;82.05
55540;BME280;41384;51.418;7.286;2023-03-21T01:38:52;99871.50;;;10.27;81.33
55540;BME280;41384;51.418;7.286;2023-03-21T01:41:26;99873.13;;;10.21;82.02
55540;BME280;41384;51.418;7.286;2023-03-21T01:43:51;99875.56;;;10.23;81.67
55540;BME280;41384;51.418;7.286;2023-03-21T01:46:37;99871.28;;;10.22;81.83
55540;BME280;41384;51.418;7.286;2023-03-21T01:49:14;99865.59;;;10.25;82.28
55540;BME280;41384;51.418;7.286;2023-03-21T01:51:47;99864.38;;;10.14;82.72
55540;BME280;41384;51.418;7.286;2023-03-21T01:54:20;99873.09;;;10.15;83.00
55540;BME280;41384;51.418;7.286;2023-03-21T01:56:50;99869.88;;;10.19;83.22
55540;BME280;41384;51.418;7.286;2023-03-21T01:59:28;99868.25;;;10.25;83.62
55540;BME280;41384;51.418;7.286;2023-03-21T02:01:59;99872.72;;;10.25;83.13
55540;BME280;41384;51.418;7.286;2023-03-21T02:04:31;99874.97;;;10.28;83.47
55540;BME280;41384;51.418;7.286;2023-03-21T02:07:01;99860.53;;;10.24;83.58
55540;BME280;41384;51.418;7.286;2023-03-21T02:09:31;99858.94;;;10.22;84.04
55540;BME280;41384;51.418;7.286;2023-03-21T02:11:58;99858.09;;;10.15;84.18
55540;BME280;41384;51.418;7.286;2023-03-21T02:14:24;99859.72;;;10.10;84.77
55540;BME280;41384;51.418;7.286;2023-03-21T02:25:55;99843.28;;;10.01;87.83
55540;BME280;41384;51.418;7.286;2023-03-21T02:28:57;99840.25;;;10.11;86.89
55540;BME280;41384;51.418;7.286;2023-03-21T02:39:31;99840.25;;;10.17;87.06
55540;BME280;41384;51.418;7.286;2023-03-21T02:42:33;99836.78;;;10.03;88.42
55540;BME280;41384;51.418;7.286;2023-03-21T02:45:19;99839.41;;;10.10;88.15
55540;BME280;41384;51.418;7.286;2023-03-21T02:47:50;99832.53;;;10.09;87.91
55540;BME280;41384;51.418;7.286;2023-03-21T02:53:03;99832.53;;;10.09;88.86
55540;BME280;41384;51.418;7.286;2023-03-21T02:55:32;99838.63;;;10.10;88.34
55540;BME280;41384;51.418;7.286;2023-03-21T02:57:59;99825.41;;;10.03;90.20
55540;BME280;41384;51.418;7.286;2023-03-21T03:00:29;99828.66;;;10.05;90.35
55540;BME280;41384;51.418;7.286;2023-03-21T03:02:55;99835.16;;;10.09;91.04
55540;BME280;41384;51.418;7.286;2023-03-21T03:05:26;99835.75;;;10.11;91.19
55540;BME280;41384;51.418;7.286;2023-03-21T03:13:29;99825.63;;;9.95;94.43
55540;BME280;41384;51.418;7.286;2023-03-21T03:18:51;99828.28;;;10.01;94.85
55540;BME280;41384;51.418;7.286;2023-03-21T03:24:20;99823.78;;;10.02;94.93
55540;BME280;41384;51.418;7.286;2023-03-21T03:26:52;99815.50;;;9.98;95.30
55540;BME280;41384;51.418;7.286;2023-03-21T03:29:20;99811.00;;;9.99;95.64
55540;BME280;41384;51.418;7.286;2023-03-21T03:34:33;99801.91;;;10.01;95.82
55540;BME280;41384;51.418;7.286;2023-03-21T03:37:05;99803.31;;;10.04;95.62
55540;BME280;41384;51.418;7.286;2023-03-21T03:39:40;99803.72;;;9.94;96.39
55540;BME280;41384;51.418;7.286;2023-03-21T03:42:14;99797.25;;;9.90;97.17
55540;BME280;41384;51.418;7.286;2023-03-21T03:44:41;99791.75;;;9.98;96.41
55540;BME280;41384;51.418;7.286;2023-03-21T03:47:09;99792.56;;;9.99;96.15
55540;BME280;41384;51.418;7.286;2023-03-21T03:49:46;99789.94;;;9.92;97.64
55540;BME280;41384;51.418;7.286;2023-03-21T03:52:17;99790.53;;;9.94;97.22
55540;BME280;41384;51.418;7.286;2023-03-21T03:54:46;99789.91;;;9.99;97.17
55540;BME280;41384;51.418;7.286;2023-03-21T03:57:13;99790.31;;;9.96;97.19
55540;BME280;41384;51.418;7.286;2023-03-21T03:59:40;99792.78;;;9.97;97.53
55540;BME280;41384;51.418;7.286;2023-03-21T04:02:07;99790.31;;;9.82;98.83
55540;BME280;41384;51.418;7.286;2023-03-21T04:04:32;99784.88;;;9.84;99.00
55540;BME280;41384;51.418;7.286;2023-03-21T04:06:58;99775.94;;;9.91;98.43
55540;BME280;41384;51.418;7.286;2023-03-21T04:09:25;99785.88;;;9.83;99.40
55540;BME280;41384;51.418;7.286;2023-03-21T04:11:53;99779.38;;;9.92;97.85
55540;BME280;41384;51.418;7.286;2023-03-21T04:14:18;99772.91;;;9.74;99.51
55540;BME280;41384;51.418;7.286;2023-03-21T04:16:46;99789.31;;;9.90;98.15
55540;BME280;41384;51.418;7.286;2023-03-21T04:19:13;99780.41;;;9.91;98.04
55540;BME280;41384;51.418;7.286;2023-03-21T04:21:40;99777.56;;;9.92;97.41
55540;BME280;41384;51.418;7.286;2023-03-21T04:24:05;99779.38;;;9.92;97.65
55540;BME280;41384;51.418;7.286;2023-03-21T04:26:31;99781.19;;;9.91;97.39
55540;BME280;41384;51.418;7.286;2023-03-21T04:28:58;99776.53;;;9.80;98.14
55540;BME280;41384;51.418;7.286;2023-03-21T04:31:28;99776.34;;;9.88;97.21
55540;BME280;41384;51.418;7.286;2023-03-21T04:33:58;99777.34;;;9.81;97.07
55540;BME280;41384;51.418;7.286;2023-03-21T04:36:24;99777.75;;;9.84;96.82
55540;BME280;41384;51.418;7.286;2023-03-21T04:38:51;99769.03;;;9.77;96.42
55540;BME280;41384;51.418;7.286;2023-03-21T04:41:17;99774.31;;;9.90;95.49
55540;BME280;41384;51.418;7.286;2023-03-21T04:43:42;99767.63;;;9.81;95.35
55540;BME280;41384;51.418;7.286;2023-03-21T04:46:08;99761.94;;;9.84;95.37
55540;BME280;41384;51.418;7.286;2023-03-21T04:48:34;99762.34;;;9.74;95.87
55540;BME280;41384;51.418;7.286;2023-03-21T04:50:59;99764.78;;;9.89;94.53
55540;BME280;41384;51.418;7.286;2023-03-21T04:53:24;99761.72;;;9.92;93.95
55540;BME280;41384;51.418;7.286;2023-03-21T04:55:50;99749.97;;;9.88;93.69
55540;BME280;41384;51.418;7.286;2023-03-21T04:58:15;99752.59;;;9.88;93.05
55540;BME280;41384;51.418;7.286;2023-03-21T05:00:41;99747.75;;;9.85;92.84
55540;BME280;41384;51.418;7.286;2023-03-21T05:03:07;99750.19;;;9.87;92.61
55540;BME280;41384;51.418;7.286;2023-03-21T05:05:37;99745.31;;;9.77;92.77
55540;BME280;41384;51.418;7.286;2023-03-21T05:08:03;99749.78;;;9.83;92.36
55540;BME280;41384;51.418;7.286;2023-03-21T05:10:28;99740.03;;;9.90;91.56
55540;BME280;41384;51.418;7.286;2023-03-21T05:12:54;99748.75;;;9.84;91.16
55540;BME280;41384;51.418;7.286;2023-03-21T05:15:19;99747.34;;;9.75;91.71
55540;BME280;41384;51.418;7.286;2023-03-21T05:17:44;99750.56;;;9.90;91.04
55540;BME280;41384;51.418;7.286;2023-03-21T05:20:13;99753.03;;;9.92;90.66
55540;BME280;41384;51.418;7.286;2023-03-21T05:22:40;99752.19;;;9.91;90.51
55540;BME280;41384;51.418;7.286;2023-03-21T05:25:07;99754.63;;;9.86;91.23
55540;BME280;41384;51.418;7.286;2023-03-21T05:27:34;99751.41;;;9.91;90.81
55540;BME280;41384;51.418;7.286;2023-03-21T05:30:02;99744.72;;;9.95;90.87
55540;BME280;41384;51.418;7.286;2023-03-21T05:32:28;99748.34;;;9.87;91.82
55540;BME280;41384;51.418;7.286;2023-03-21T05:34:53;99749.97;;;9.88;91.27
55540;BME280;41384;51.418;7.286;2023-03-21T05:37:18;99746.75;;;9.93;90.39
55540;BME280;41384;51.418;7.286;2023-03-21T05:39:44;99753.03;;;9.92;90.50
55540;BME280;41384;51.418;7.286;2023-03-21T05:42:09;99751.81;;;9.88;89.84
55540;BME280;41384;51.418;7.286;2023-03-21T05:44:35;99754.63;;;9.86;89.45
55540;BME280;41384;51.418;7.286;2023-03-21T05:47:01;99752.81;;;9.93;89.33
55540;BME280;41384;51.418;7.286;2023-03-21T05:49:28;99752.19;;;9.91;88.85
55540;BME280;41384;51.418;7.286;2023-03-21T05:51:54;99744.91;;;9.80;89.83
55540;BME280;41384;51.418;7.286;2023-03-21T05:54:20;99732.94;;;9.91;89.16
55540;BME280;41384;51.418;7.286;2023-03-21T05:56:45;99738.41;;;10.03;89.12
55540;BME280;41384;51.418;7.286;2023-03-21T05:59:10;99740.03;;;10.04;88.48
55540;BME280;41384;51.418;7.286;2023-03-21T06:01:36;99738.00;;;9.99;89.06
55540;BME280;41384;51.418;7.286;2023-03-21T06:04:01;99743.06;;;10.07;88.56
55540;BME280;41384;51.418;7.286;2023-03-21T06:06:26;99741.84;;;10.03;89.43
55540;BME280;41384;51.418;7.286;2023-03-21T06:08:51;99741.22;;;10.08;89.93
55540;BME280;41384;51.418;7.286;2023-03-21T06:11:32;99736.78;;;10.02;91.03
55540;BME280;41384;51.418;7.286;2023-03-21T06:13:58;99740.84;;;10.04;91.36
55540;BME280;41384;51.418;7.286;2023-03-21T06:16:23;99743.88;;;10.08;91.54
55540;BME280;41384;51.418;7.286;2023-03-21T06:18:48;99748.13;;;9.96;91.79
55540;BME280;41384;51.418;7.286;2023-03-21T06:21:13;99737.81;;;10.07;92.62
55540;BME280;41384;51.418;7.286;2023-03-21T06:23:39;99734.97;;;9.96;94.85
55540;BME280;41384;51.418;7.286;2023-03-21T06:26:05;99732.72;;;9.92;95.78
55540;BME280;41384;51.418;7.286;2023-03-21T06:28:30;99738.19;;;9.98;95.79
55540;BME280;41384;51.418;7.286;2023-03-21T06:30:56;99729.28;;;10.05;95.61
55540;BME280;41384;51.418;7.286;2023-03-21T06:33:21;99737.78;;;10.01;96.63
55540;BME280;41384;51.418;7.286;2023-03-21T06:35:51;99736.38;;;9.98;97.40
55540;BME280;41384;51.418;7.286;2023-03-21T06:38:17;99736.56;;;9.97;98.01
55540;BME280;41384;51.418;7.286;2023-03-21T06:40:44;99739.41;;;10.02;97.94
55540;BME280;41384;51.418;7.286;2023-03-21T06:43:10;99743.69;;;9.96;98.13
55540;BME280;41384;51.418;7.286;2023-03-21T06:45:35;99744.69;;;10.02;97.96
55540;BME280;41384;51.418;7.286;2023-03-21T06:48:00;99750.19;;;10.00;99.01
55540;BME280;41384;51.418;7.286;2023-03-21T06:50:26;99744.88;;;10.07;99.31
55540;BME280;41384;51.418;7.286;2023-03-21T06:52:51;99746.50;;;10.08;98.94
55540;BME280;41384;51.418;7.286;2023-03-21T06:55:17;99750.34;;;10.12;99.76
55540;BME280;41384;51.418;7.286;2023-03-21T06:57:44;99742.25;;;10.07;100.00
55540;BME280;41384;51.418;7.286;2023-03-21T07:00:10;99748.34;;;10.01;100.00
55540;BME280;41384;51.418;7.286;2023-03-21T07:02:37;99748.34;;;10.01;100.00
55540;BME280;41384;51.418;7.286;2023-03-21T07:05:03;99745.50;;;10.02;100.00
55540;BME280;41384;51.418;7.286;2023-03-21T07:07:28;99736.38;;;10.05;100.00
55540;BME280;41384;51.418;7.286;2023-03-21T07:09:54;99738.78;;;10.13;100.00
55540;BME280;41384;51.418;7.286;2023-03-21T07:12:21;99746.09;;;10.18;100.00
55540;BME280;41384;51.418;7.286;2023-03-21T07:14:46;99742.66;;;10.11;100.00
55540;BME280;41384;51.418;7.286;2023-03-21T07:17:12;99748.97;;;9.96;100.00
55540;BME280;41384;51.418;7.286;2023-03-21T07:19:37;99747.94;;;9.97;100.00
55540;BME280;41384;51.418;7.286;2023-03-21T07:22:02;99746.13;;;9.98;100.00
55540;BME280;41384;51.418;7.286;2023-03-21T07:24:27;99749.56;;;9.98;100.00
55540;BME280;41384;51.418;7.286;2023-03-21T07:26:53;99750.78;;;9.96;100.00
55540;BME280;41384;51.418;7.286;2023-03-21T07:29:18;99743.28;;;9.99;100.00
55540;BME280;41384;51.418;7.286;2023-03-21T07:31:47;99746.13;;;9.98;100.00
55540;BME280;41384;51.418;7.286;2023-03-21T07:34:13;99748.13;;;9.96;100.00
55540;BME280;41384;51.418;7.286;2023-03-21T07:36:40;99745.28;;;10.04;100.00
55540;BME280;41384;51.418;7.286;2023-03-21T07:39:06;99750.16;;;10.07;100.00
55540;BME280;41384;51.418;7.286;2023-03-21T07:41:31;99756.88;;;10.10;100.00
55540;BME280;41384;51.418;7.286;2023-03-21T07:43:56;99756.06;;;9.96;100.00
55540;BME280;41384;51.418;7.286;2023-03-21T07:46:22;99746.53;;;10.01;100.00
55540;BME280;41384;51.418;7.286;2023-03-21T07:48:47;99744.88;;;10.07;100.00
55540;BME280;41384;51.418;7.286;2023-03-21T07:51:12;99744.88;;;10.07;100.00
55540;BME280;41384;51.418;7.286;2023-03-21T07:53:38;99753.59;;;10.14;100.00
55540;BME280;41384;51.418;7.286;2023-03-21T07:56:06;99745.50;;;10.02;100.00
55540;BME280;41384;51.418;7.286;2023-03-21T07:58:31;99755.03;;;10.10;100.00
55540;BME280;41384;51.418;7.286;2023-03-21T08:00:58;99749.34;;;10.27;100.00
55540;BME280;41384;51.418;7.286;2023-03-21T08:03:24;99754.41;;;10.28;100.00
55540;BME280;41384;51.418;7.286;2023-03-21T08:05:53;99760.47;;;10.35;100.00
55540;BME280;41384;51.418;7.286;2023-03-21T08:08:18;99755.41;;;10.34;100.00
55540;BME280;41384;51.418;7.286;2023-03-21T08:10:44;99762.72;;;10.32;100.00
55540;BME280;41384;51.418;7.286;2023-03-21T08:13:09;99765.78;;;10.29;100.00
55540;BME280;41384;51.418;7.286;2023-03-21T08:15:34;99757.44;;;10.25;100.00
55540;BME280;41384;51.418;7.286;2023-03-21T08:17:59;99747.94;;;10.17;100.00
55540;BME280;41384;51.418;7.286;2023-03-21T08:20:25;99751.78;;;10.21;100.00
55540;BME280;41384;51.418;7.286;2023-03-21T08:22:50;99746.09;;;10.18;100.00
55540;BME280;41384;51.418;7.286;2023-03-21T08:25:18;99733.31;;;10.21;100.00
55540;BME280;41384;51.418;7.286;2023-03-21T08:27:45;99733.91;;;10.37;100.00
55540;BME280;41384;51.418;7.286;2023-03-21T08:30:13;99736.34;;;10.32;100.00
55540;BME280;41384;51.418;7.286;2023-03-21T08:32:39;99732.88;;;10.38;100.00
55540;BME280;41384;51.418;7.286;2023-03-21T08:35:07;99732.28;;;10.43;100.00
55540;BME280;41384;51.418;7.286;2023-03-21T08:37:35;99726.59;;;10.39;100.00
55540;BME280;41384;51.418;7.286;2023-03-21T08:40:00;99739.53;;;10.54;100.00
55540;BME280;41384;51.418;7.286;2023-03-21T08:42:26;99736.13;;;10.54;100.00
55540;BME280;41384;51.418;7.286;2023-03-21T08:44:51;99732.03;;;10.64;100.00
55540;BME280;41384;51.418;7.286;2023-03-21T08:47:16;99736.47;;;10.64;100.00
55540;BME280;41384;51.418;7.286;2023-03-21T08:49:42;99739.53;;;10.68;100.00
55540;BME280;41384;51.418;7.286;2023-03-21T08:52:10;99741.94;;;10.69;100.00
55540;BME280;41384;51.418;7.286;2023-03-21T08:54:35;99740.50;;;10.80;100.00
55540;BME280;41384;51.418;7.286;2023-03-21T08:57:01;99742.72;;;10.76;100.00
55540;BME280;41384;51.418;7.286;2023-03-21T08:59:26;99748.25;;;10.75;100.00
55540;BME280;41384;51.418;7.286;2023-03-21T09:01:51;99757.00;;;10.62;100.00
55540;BME280;41384;51.418;7.286;2023-03-21T09:04:17;99747.22;;;10.69;100.00
55540;BME280;41384;51.418;7.286;2023-03-21T09:06:43;99751.13;;;10.53;100.00
55540;BME280;41384;51.418;7.286;2023-03-21T09:09:10;99748.28;;;10.61;100.00
55540;BME280;41384;51.418;7.286;2023-03-21T09:11:35;99743.81;;;10.62;100.00
55540;BME280;41384;51.418;7.286;2023-03-21T09:14:00;99747.88;;;10.64;100.00
55540;BME280;41384;51.418;7.286;2023-03-21T09:16:26;99752.97;;;10.53;100.00
55540;BME280;41384;51.418;7.286;2023-03-21T09:18:54;99755.81;;;10.51;100.00
55540;BME280;41384;51.418;7.286;2023-03-21T09:21:21;99744.81;;;10.61;100.00
55540;BME280;41384;51.418;7.286;2023-03-21T09:23:49;99750.09;;;10.61;100.00
55540;BME280;41384;51.418;7.286;2023-03-21T09:26:20;99749.88;;;10.69;100.00
55540;BME280;41384;51.418;7.286;2023-03-21T09:28:45;99745.41;;;10.70;100.00
55540;BME280;41384;51.418;7.286;2023-03-21T09:31:12;99751.06;;;10.80;100.00
55540;BME280;41384;51.418;7.286;2023-03-21T09:33:41;99746.03;;;10.65;100.00
55540;BME280;41384;51.418;7.286;2023-03-21T09:36:08;99743.75;;;10.75;100.00
55540;BME280;41384;51.418;7.286;2023-03-21T09:38:39;99739.91;;;10.78;100.00
55540;BME280;41384;51.418;7.286;2023-03-21T09:49:38;99735.41;;;10.78;100.00
55540;BME280;41384;51.418;7.286;2023-03-21T09:52:12;99739.13;;;10.71;100.00
55540;BME280;41384;51.418;7.286;2023-03-21T09:54:42;99739.31;;;10.69;100.00
55540;BME280;41384;51.418;7.286;2023-03-21T09:57:34;99734.84;;;10.70;100.00
55540;BME280;41384;51.418;7.286;2023-03-21T10:00:06;99748.00;;;10.76;100.00
55540;BME280;41384;51.418;7.286;2023-03-21T10:02:43;99739.66;;;10.79;100.00
55540;BME280;41384;51.418;7.286;2023-03-21T10:05:30;99736.44;;;10.77;100.00
55540;BME280;41384;51.418;7.286;2023-03-21T10:08:19;99740.09;;;10.76;100.00
55540;BME280;41384;51.418;7.286;2023-03-21T10:10:51;99740.25;;;10.88;100.00
55540;BME280;41384;51.418;7.286;2023-03-21T10:13:24;99740.84;;;10.90;100.00
55540;BME280;41384;51.418;7.286;2023-03-21T10:15:55;99732.94;;;10.90;100.00
55540;BME280;41384;51.418;7.286;2023-03-21T10:18:23;99724.66;;;10.80;100.00
55540;BME280;41384;51.418;7.286;2023-03-21T10:20:50;99723.84;;;10.79;100.00
55540;BME280;41384;51.418;7.286;2023-03-21T10:23:19;99723.22;;;10.84;100.00
55540;BME280;41384;51.418;7.286;2023-03-21T10:25:50;99719.38;;;10.80;100.00
55540;BME280;41384;51.418;7.286;2023-03-21T10:28:23;99722.38;;;10.84;100.00
55540;BME280;41384;51.418;7.286;2023-03-21T10:31:01;99716.09;;;10.85;100.00
55540;BME280;41384;51.418;7.286;2023-03-21T10:33:33;99723.22;;;10.77;100.00
55540;BME280;41384;51.418;7.286;2023-03-21T10:36:08;99717.09;;;10.84;100.00
55540;BME280;41384;51.418;7.286;2023-03-21T10:38:34;99715.28;;;10.84;100.00
55540;BME280;41384;51.418;7.286;2023-03-21T10:41:03;99712.59;;;10.91;100.00
55540;BME280;41384;51.418;7.286;2023-03-21T10:43:33;99718.50;;;10.93;100.00
55540;BME280;41384;51.418;7.286;2023-03-21T10:46:25;99712.19;;;10.94;100.00
55540;BME280;41384;51.418;7.286;2023-03-21T10:48:51;99709.34;;;10.95;100.00
55540;BME280;41384;51.418;7.286;2023-03-21T10:51:25;99699.16;;;10.99;100.00
55540;BME280;41384;51.418;7.286;2023-03-21T10:53:54;99708.50;;;11.02;100.00
55540;BME280;41384;51.418;7.286;2023-03-21T10:56:34;99686.97;;;10.98;100.00
55540;BME280;41384;51.418;7.286;2023-03-21T10:59:01;99694.28;;;11.03;100.00
55540;BME280;41384;51.418;7.286;2023-03-21T11:01:36;99685.16;;;10.99;100.00
55540;BME280;41384;51.418;7.286;2023-03-21T11:04:11;99680.66;;;11.06;100.00
55540;BME280;41384;51.418;7.286;2023-03-21T11:06:40;99676.13;;;11.13;100.00
55540;BME280;41384;51.418;7.286;2023-03-21T11:09:15;99675.75;;;11.09;100.00
55540;BME280;41384;51.418;7.286;2023-03-21T11:12:09;99673.16;;;11.03;100.00
55540;BME280;41384;51.418;7.286;2023-03-21T11:14:36;99674.13;;;11.08;100.00
55540;BME280;41384;51.418;7.286;2023-03-21T11:19:47;99666.56;;;11.19;100.00
55540;BME280;41384;51.418;7.286;2023-03-21T11:22:14;99660.41;;;11.25;100.00
55540;BME280;41384;51.418;7.286;2023-03-21T11:24:41;99651.66;;;11.24;100.00
55540;BME280;41384;51.418;7.286;2023-03-21T11:27:09;99639.47;;;11.23;100.00
55540;BME280;41384;51.418;7.286;2023-03-21T11:29:36;99647.72;;;11.34;100.00
55540;BME280;41384;51.418;7.286;2023-03-21T11:32:26;99634.31;;;11.35;100.00
55540;BME280;41384;51.418;7.286;2023-03-21T11:35:20;99630.13;;;11.46;100.00
55540;BME280;41384;51.418;7.286;2023-03-21T11:37:49;99630.97;;;11.47;98.66
55540;BME280;41384;51.418;7.286;2023-03-21T11:42:50;99628.75;;;11.44;99.76
55540;BME280;41384;51.418;7.286;2023-03-21T11:45:23;99650.34;;;11.41;98.15
55540;BME280;41384;51.418;7.286;2023-03-21T11:47:51;99634.19;;;11.49;96.89
55540;BME280;41384;51.418;7.286;2023-03-21T11:50:29;99637.88;;;11.48;96.85
55540;BME280;41384;51.418;7.286;2023-03-21T11:56:15;99628.22;;;11.35;97.55
55540;BME280;41384;51.418;7.286;2023-03-21T12:01:33;99623.41;;;11.25;98.12
55540;BME280;41384;51.418;7.286;2023-03-21T12:04:23;99617.28;;;11.31;98.40
55540;BME280;41384;51.418;7.286;2023-03-21T12:06:55;99612.47;;;11.47;98.39
55540;BME280;41384;51.418;7.286;2023-03-21T12:09:36;99613.81;;;11.56;97.22
55540;BME280;41384;51.418;7.286;2023-03-21T12:12:31;99601.19;;;11.58;96.83
55540;BME280;41384;51.418;7.286;2023-03-21T12:18:04;99603.78;;;11.39;96.31
55540;BME280;41384;51.418;7.286;2023-03-21T12:20:52;99597.63;;;11.46;96.44
55540;BME280;41384;51.418;7.286;2023-03-21T12:28:50;99599.56;;;11.57;95.00
55540;BME280;41384;51.418;7.286;2023-03-21T12:35:15;99592.66;;;11.56;93.71
55540;BME280;41384;51.418;7.286;2023-03-21T12:40:54;99591.63;;;11.57;93.49
55540;BME280;41384;51.418;7.286;2023-03-21T12:46:18;99594.66;;;11.61;93.18
55540;BME280;41384;51.418;7.286;2023-03-21T12:48:51;99587.59;;;11.55;92.30
55540;BME280;41384;51.418;7.286;2023-03-21T12:51:23;99597.00;;;11.50;92.94
55540;BME280;41384;51.418;7.286;2023-03-21T12:54:16;99592.66;;;11.56;92.88
55540;BME280;41384;51.418;7.286;2023-03-21T12:56:54;99593.97;;;11.47;93.17
55540;BME280;41384;51.418;7.286;2023-03-21T12:59:30;99583.72;;;11.32;93.51
55540;BME280;41384;51.418;7.286;2023-03-21T13:02:04;99589.13;;;11.44;94.36
55540;BME280;41384;51.418;7.286;2023-03-21T13:04:48;99583.94;;;11.30;95.07
55540;BME280;41384;51.418;7.286;2023-03-21T13:07:19;99593.97;;;11.47;97.21
55540;BME280;41384;51.418;7.286;2023-03-21T13:09:46;99579.34;;;11.44;98.04
55540;BME280;41384;51.418;7.286;2023-03-21T13:12:24;99576.09;;;11.42;95.77
55540;BME280;41384;51.418;7.286;2023-03-21T13:15:31;99559.75;;;11.33;97.57
55540;BME280;41384;51.418;7.286;2023-03-21T13:18:03;99558.56;;;11.48;97.08
55540;BME280;41384;51.418;7.286;2023-03-21T13:20:45;99563.03;;;11.47;97.90
55540;BME280;41384;51.418;7.286;2023-03-21T13:23:12;99550.81;;;11.53;98.71
55540;BME280;41384;51.418;7.286;2023-03-21T13:25:42;99552.38;;;11.61;96.39
55540;BME280;41384;51.418;7.286;2023-03-21T13:28:17;99555.22;;;11.59;95.66
55540;BME280;41384;51.418;7.286;2023-03-21T13:30:43;99543.69;;;11.53;96.12
55540;BME280;41384;51.418;7.286;2023-03-21T13:33:13;99538.56;;;11.59;96.99
55540;BME280;41384;51.418;7.286;2023-03-21T13:35:43;99533.97;;;11.47;96.68
55540;BME280;41384;51.418;7.286;2023-03-21T13:38:15;99541.91;;;11.47;96.57
55540;BME280;41384;51.418;7.286;2023-03-21T13:46:05;99518.47;;;11.32;94.97
55540;BME280;41384;51.418;7.286;2023-03-21T13:48:40;99506.22;;;11.38;94.30
55540;BME280;41384;51.418;7.286;2023-03-21T13:51:05;99512.91;;;11.41;93.80
55540;BME280;41384;51.418;7.286;2023-03-21T13:53:35;99508.22;;;11.43;94.00
55540;BME280;41384;51.418;7.286;2023-03-21T14:01:31;99492.22;;;11.37;92.91
55540;BME280;41384;51.418;7.286;2023-03-21T14:04:12;99495.50;;;11.33;92.84
55540;BME280;41384;51.418;7.286;2023-03-21T14:06:45;99490.31;;;11.45;92.92
55540;BME280;41384;51.418;7.286;2023-03-21T14:09:20;99487.66;;;11.45;91.56
55540;BME280;41384;51.418;7.286;2023-03-21T14:11:46;99489.22;;;11.52;91.54
55540;BME280;41384;51.418;7.286;2023-03-21T14:14:13;99477.75;;;11.59;92.51
55540;BME280;41384;51.418;7.286;2023-03-21T14:16:39;99481.06;;;11.54;91.76
55540;BME280;41384;51.418;7.286;2023-03-21T14:19:05;99477.63;;;11.53;91.78
55540;BME280;41384;51.418;7.286;2023-03-21T14:21:33;99470.72;;;11.52;91.71
55540;BME280;41384;51.418;7.286;2023-03-21T14:23:59;99468.66;;;11.55;92.15
55540;BME280;41384;51.418;7.286;2023-03-21T14:26:39;99468.56;;;11.61;91.46
55540;BME280;41384;51.418;7.286;2023-03-21T14:29:06;99465.34;;;11.59;90.41
55540;BME280;41384;51.418;7.286;2023-03-21T14:31:32;99464.91;;;11.62;91.10
55540;BME280;41384;51.418;7.286;2023-03-21T14:34:00;99458.09;;;11.55;91.10